Time;durP1;ratioP1;P1;durP2;ratioP2;P2;SDS_P1;SDS_P2;PMS_P1;PMS_P2;Temp;Humidity;BMP_temperature;BMP_pressure;BME280_temperature;BME280_humidity;BME280_pressure;Samples;Min_cycle;Max_cycle;Signal;HPM_P1;HPM_P2
2021/01/23 00:00:08;;;;;;;125.70;70.20;;;;;;;5.27;72.41;98704.64;125457;1126;22465;-78
2021/01/23 00:03:00;;;;;;;119.67;68.07;;;;;;;5.19;72.03;98719.39;125486;1125;22644;-77
2021/01/23 00:05:28;;;;;;;105.25;64.60;;;;;;;5.12;72.68;98715.03;125510;1127;22429;-78
2021/01/23 00:08:01;;;;;;;104.90;65.25;;;;;;;5.03;72.67;98705.59;125474;1129;22444;-78
2021/01/23 00:10:30;;;;;;;143.87;80.38;;;;;;;4.93;72.40;98708.41;125467;1127;22453;-78
2021/01/23 00:12:59;;;;;;;152.82;84.30;;;;;;;4.83;72.41;98700.81;125532;1126;22457;-78
2021/01/23 00:15:27;;;;;;;153.27;86.65;;;;;;;4.75;72.26;98702.64;125501;1127;22441;-78
2021/01/23 00:17:55;;;;;;;154.93;88.90;;;;;;;4.66;71.88;98713.12;125493;1126;24562;-79
2021/01/23 00:20:23;;;;;;;182.17;96.75;;;;;;;4.58;72.07;98707.94;125512;1127;22463;-79
2021/01/23 00:22:51;;;;;;;232.98;120.10;;;;;;;4.51;72.01;98704.37;125482;1127;22472;-79
2021/01/23 00:25:19;;;;;;;233.93;122.77;;;;;;;4.44;72.81;98698.19;125478;1127;23961;-78
2021/01/23 00:27:47;;;;;;;291.30;144.87;;;;;;;4.36;72.86;98709.47;125425;1127;22455;-76
2021/01/23 00:30:16;;;;;;;238.43;123.53;;;;;;;4.32;73.33;98718.64;125454;1126;24390;-78
2021/01/23 00:32:44;;;;;;;226.82;118.10;;;;;;;4.30;73.13;98720.63;125502;1126;24559;-78
2021/01/23 00:35:16;;;;;;;252.47;129.05;;;;;;;4.30;73.30;98717.16;125583;1128;22433;-79
2021/01/23 00:37:47;;;;;;;235.20;121.67;;;;;;;4.25;73.14;98723.72;125457;1130;22444;-78
2021/01/23 00:40:16;;;;;;;132.20;79.47;;;;;;;4.22;72.88;98728.47;125459;1127;25965;-79
2021/01/23 00:42:44;;;;;;;150.50;87.50;;;;;;;4.11;72.62;98723.59;125450;1126;22457;-79
2021/01/23 00:45:13;;;;;;;182.55;96.20;;;;;;;4.01;73.27;98729.00;125474;1127;22467;-78
2021/01/23 00:47:41;;;;;;;124.95;72.03;;;;;;;3.97;73.47;98727.70;125442;1130;22431;-79
2021/01/23 00:50:10;;;;;;;126.02;73.17;;;;;;;3.91;73.88;98737.01;125469;1127;22450;-78
2021/01/23 00:52:39;;;;;;;224.62;110.12;;;;;;;3.88;74.62;98746.97;125525;1130;22910;-79
2021/01/23 00:55:07;;;;;;;264.72;125.05;;;;;;;3.85;74.43;98736.84;125490;1127;22436;-79
2021/01/23 00:57:37;;;;;;;289.23;134.15;;;;;;;3.84;74.56;98735.23;125508;1127;22542;-79
2021/01/23 01:00:08;;;;;;;229.18;111.47;;;;;;;3.79;74.66;98733.09;125525;1127;22454;-79
2021/01/23 01:02:39;;;;;;;129.60;74.10;;;;;;;3.80;74.97;98726.06;125501;1127;22453;-79
2021/01/23 01:05:10;;;;;;;99.95;63.08;;;;;;;3.82;75.56;98721.50;125486;1130;22443;-79
2021/01/23 01:07:38;;;;;;;110.03;68.72;;;;;;;3.83;75.79;98713.48;125457;1126;24558;-78
2021/01/23 01:10:08;;;;;;;107.17;69.10;;;;;;;3.78;75.00;98706.16;125514;1126;22538;-79
2021/01/23 01:12:37;;;;;;;107.10;70.60;;;;;;;3.73;74.43;98702.39;125473;1127;22450;-78
2021/01/23 01:15:06;;;;;;;121.63;77.57;;;;;;;3.67;74.43;98692.63;125467;1127;22457;-78
2021/01/23 01:17:35;;;;;;;138.82;81.37;;;;;;;3.59;75.13;98685.59;125144;1130;22434;-78
2021/01/23 01:20:04;;;;;;;139.80;80.28;;;;;;;3.53;75.08;98681.02;125463;1129;23220;-78
2021/01/23 01:22:33;;;;;;;90.70;58.75;;;;;;;3.47;74.24;98690.34;125508;1127;22443;-78
2021/01/23 01:25:01;;;;;;;94.80;61.02;;;;;;;3.46;74.66;98683.47;125472;1127;22480;-77
2021/01/23 01:27:29;;;;;;;84.30;54.35;;;;;;;3.47;75.37;98682.51;125494;1130;22457;-78
2021/01/23 01:29:57;;;;;;;72.45;49.80;;;;;;;3.48;75.54;98684.13;125504;1127;22426;-78
2021/01/23 01:32:25;;;;;;;69.62;46.15;;;;;;;3.52;75.32;98689.84;125492;1127;22438;-78
2021/01/23 01:34:53;;;;;;;68.85;48.35;;;;;;;3.58;75.80;98685.77;125516;1127;22493;-78
2021/01/23 01:37:22;;;;;;;62.45;42.53;;;;;;;3.63;76.54;98673.02;125463;1130;22425;-78
2021/01/23 01:39:50;;;;;;;46.48;33.85;;;;;;;3.67;76.10;98677.77;125488;1127;22449;-78
2021/01/23 01:42:18;;;;;;;47.62;34.63;;;;;;;3.69;75.64;98686.23;125474;1130;22918;-78
2021/01/23 01:44:46;;;;;;;48.33;31.87;;;;;;;3.72;76.28;98690.33;125502;1129;22771;-78
2021/01/23 01:47:14;;;;;;;51.95;33.50;;;;;;;3.77;75.94;98693.27;125485;1127;22495;-78
2021/01/23 01:49:42;;;;;;;45.30;30.08;;;;;;;3.83;76.74;98689.98;125530;1127;22478;-78
2021/01/23 01:52:13;;;;;;;54.15;34.78;;;;;;;3.89;76.77;98684.09;125519;1127;22503;-78
2021/01/23 01:54:42;;;;;;;78.22;40.52;;;;;;;3.91;75.76;98678.72;125573;1126;24552;-79
2021/01/23 01:57:10;;;;;;;63.68;38.20;;;;;;;3.93;75.73;98668.91;125489;1127;23192;-79
2021/01/23 01:59:38;;;;;;;54.63;34.55;;;;;;;3.93;76.39;98661.91;125502;1130;22885;-79
2021/01/23 02:02:30;;;;;;;48.35;31.48;;;;;;;3.95;76.46;98653.89;125507;1127;22447;-79
2021/01/23 02:05:08;;;;;;;43.48;30.60;;;;;;;3.96;75.96;98665.96;125510;1127;22905;-79
2021/01/23 02:08:37;;;;;;;45.43;31.05;;;;;;;4.00;76.02;98672.51;125492;1127;22450;-78
2021/01/23 02:11:30;;;;;;;42.85;29.63;;;;;;;3.99;75.90;98676.08;124991;1133;22508;-79
2021/01/23 02:14:14;;;;;;;38.73;28.23;;;;;;;3.99;75.77;98673.47;125005;1130;23012;-79
2021/01/23 02:16:47;;;;;;;36.80;26.13;;;;;;;4.02;75.92;98662.69;125052;1129;22661;-79
2021/01/23 02:19:27;;;;;;;39.70;26.12;;;;;;;4.09;75.94;98671.48;125139;1130;22443;-79
2021/01/23 02:22:31;;;;;;;35.08;22.85;;;;;;;4.16;76.18;98688.13;125054;1129;22462;-80
2021/01/23 02:25:03;;;;;;;37.73;24.60;;;;;;;4.20;76.56;98686.83;125066;1130;22784;-80
2021/01/23 02:28:02;;;;;;;37.17;27.57;;;;;;;4.23;75.97;98683.88;125049;1129;22456;-80
2021/01/23 02:30:53;;;;;;;33.25;25.90;;;;;;;4.29;76.26;98678.95;125030;1130;23709;-80
2021/01/23 02:33:22;;;;;;;40.52;25.88;;;;;;;4.38;75.91;98670.10;125046;1130;22535;-80
2021/01/23 02:35:51;;;;;;;34.53;25.50;;;;;;;4.46;75.63;98667.44;125073;1130;22825;-80
2021/01/23 02:38:20;;;;;;;39.98;25.88;;;;;;;4.51;76.01;98667.77;125058;1130;22452;-79
2021/01/23 02:40:48;;;;;;;38.92;27.10;;;;;;;4.54;75.33;98675.27;125012;1130;22442;-80
2021/01/23 02:43:20;;;;;;;47.23;30.23;;;;;;;4.57;75.93;98669.70;124974;1130;22496;-79
2021/01/23 02:45:52;;;;;;;57.77;32.90;;;;;;;4.61;75.35;98662.33;125056;1130;25064;-79
2021/01/23 02:48:20;;;;;;;60.40;33.28;;;;;;;4.64;75.47;98660.19;125339;1130;22586;-79
2021/01/23 02:50:48;;;;;;;66.97;36.00;;;;;;;4.66;74.92;98647.73;125522;1126;24380;-80
2021/01/23 02:53:22;;;;;;;59.18;34.45;;;;;;;4.68;75.01;98664.08;125470;1127;25792;-79
2021/01/23 02:55:56;;;;;;;52.65;30.72;;;;;;;4.67;75.37;98661.65;125490;1128;22875;-79
2021/01/23 02:58:30;;;;;;;43.08;28.42;;;;;;;4.65;74.61;98660.99;125556;1125;24572;-79
2021/01/23 03:01:02;;;;;;;43.52;27.22;;;;;;;4.67;74.71;98648.57;125539;1126;22481;-79
2021/01/23 03:03:33;;;;;;;36.70;25.40;;;;;;;4.71;75.33;98640.20;125521;1127;22529;-79
2021/01/23 03:06:04;;;;;;;32.38;22.65;;;;;;;4.76;74.67;98631.01;125473;1129;22640;-79
2021/01/23 03:08:33;;;;;;;33.28;25.17;;;;;;;4.78;75.00;98632.47;125523;1127;22485;-79
2021/01/23 03:11:01;;;;;;;38.73;27.82;;;;;;;4.79;74.20;98621.02;125522;1126;22453;-79
2021/01/23 03:13:30;;;;;;;35.95;27.27;;;;;;;4.78;74.54;98624.62;125596;1126;24561;-79
2021/01/23 03:15:58;;;;;;;39.60;30.32;;;;;;;4.80;74.60;98637.52;125493;1126;22437;-79
2021/01/23 03:18:26;;;;;;;36.00;27.48;;;;;;;4.81;74.25;98619.05;125446;1126;22614;-79
2021/01/23 03:20:54;;;;;;;35.03;27.42;;;;;;;4.86;74.70;98615.91;125516;1130;22436;-79
2021/01/23 03:23:22;;;;;;;42.93;31.25;;;;;;;4.88;74.59;98611.33;125468;1127;22426;-79
2021/01/23 03:25:51;;;;;;;42.83;32.60;;;;;;;4.86;74.72;98602.82;125508;1127;22450;-78
2021/01/23 03:28:20;;;;;;;42.27;33.83;;;;;;;4.82;74.63;98597.13;125480;1129;23221;-79
2021/01/23 03:30:49;;;;;;;48.92;35.58;;;;;;;4.77;74.71;98590.80;125523;1127;22607;-78
2021/01/23 03:33:17;;;;;;;48.90;35.55;;;;;;;4.77;74.65;98590.80;125466;1127;22625;-79
2021/01/23 03:35:45;;;;;;;49.40;33.92;;;;;;;4.72;74.61;98584.27;125490;1126;23190;-79
2021/01/23 03:38:13;;;;;;;46.63;35.33;;;;;;;4.72;74.43;98581.66;125535;1126;24265;-79
2021/01/23 03:40:41;;;;;;;39.75;33.13;;;;;;;4.70;74.62;98575.80;125522;1127;22444;-79
2021/01/23 03:43:09;;;;;;;41.63;33.55;;;;;;;4.68;75.37;98571.72;125497;1127;22463;-78
2021/01/23 03:45:37;;;;;;;42.78;33.30;;;;;;;4.69;74.82;98578.57;125458;1126;24565;-78
2021/01/23 03:48:06;;;;;;;38.67;32.55;;;;;;;4.74;75.59;98570.22;125512;1127;23193;-78
2021/01/23 03:50:34;;;;;;;37.65;30.60;;;;;;;4.75;75.51;98551.72;125517;1125;22444;-79
2021/01/23 03:53:02;;;;;;;36.53;29.80;;;;;;;4.77;75.58;98549.77;125512;1127;22570;-79
2021/01/23 03:55:30;;;;;;;32.83;26.93;;;;;;;4.77;75.48;98543.72;125517;1127;22432;-80
2021/01/23 03:57:58;;;;;;;40.60;28.30;;;;;;;4.77;75.40;98539.30;125471;1129;22444;-79
2021/01/23 04:00:28;;;;;;;35.70;27.67;;;;;;;4.80;75.94;98535.49;125531;1127;24559;-77
2021/01/23 04:02:56;;;;;;;35.63;27.25;;;;;;;4.84;76.46;98531.56;125419;1130;22529;-76
2021/01/23 04:05:25;;;;;;;34.17;24.67;;;;;;;4.91;76.46;98541.14;125466;1127;24573;-76
2021/01/23 04:07:53;;;;;;;35.63;27.23;;;;;;;4.97;76.33;98534.40;125494;1127;22424;-76
2021/01/23 04:10:21;;;;;;;30.00;26.30;;;;;;;5.02;76.37;98532.05;125486;1127;22420;-79
2021/01/23 04:12:49;;;;;;;36.65;28.92;;;;;;;5.05;76.08;98518.61;125454;1126;22485;-79
2021/01/23 04:15:17;;;;;;;36.93;26.77;;;;;;;5.05;76.17;98518.61;125495;1127;22878;-79
2021/01/23 04:17:45;;;;;;;34.95;24.30;;;;;;;5.07;75.90;98519.27;125445;1127;25854;-78
2021/01/23 04:20:14;;;;;;;29.18;23.15;;;;;;;5.10;76.35;98515.48;125462;1127;22448;-78
2021/01/23 04:22:43;;;;;;;29.50;22.35;;;;;;;5.13;76.72;98512.48;125481;1127;22441;-78
2021/01/23 04:25:11;;;;;;;33.87;23.87;;;;;;;5.14;76.00;98508.89;125443;1126;22535;-79
2021/01/23 04:27:41;;;;;;;28.52;22.80;;;;;;;5.13;76.23;98513.33;125478;1129;22859;-79
2021/01/23 04:30:11;;;;;;;31.82;22.80;;;;;;;5.13;76.59;98505.47;125464;1128;22554;-80
2021/01/23 04:32:41;;;;;;;31.52;23.07;;;;;;;5.16;77.04;98507.73;125456;1127;23191;-79
2021/01/23 04:35:13;;;;;;;30.10;21.17;;;;;;;5.22;76.49;98503.57;125452;1126;22444;-79
2021/01/23 04:37:41;;;;;;;29.95;22.10;;;;;;;5.25;76.32;98503.22;125420;1126;22444;-79
2021/01/23 04:40:12;;;;;;;28.45;22.22;;;;;;;5.25;76.14;98484.89;125485;1127;22432;-79
2021/01/23 04:42:44;;;;;;;32.42;24.30;;;;;;;5.25;76.20;98491.94;125455;1130;22449;-79
2021/01/23 04:45:13;;;;;;;35.15;21.80;;;;;;;5.22;76.74;98493.10;125464;1127;22465;-79
2021/01/23 04:47:42;;;;;;;31.02;22.45;;;;;;;5.19;76.55;98481.17;125513;1127;22452;-78
2021/01/23 04:50:11;;;;;;;32.85;23.95;;;;;;;5.21;77.07;98467.11;125452;1127;22446;-79
2021/01/23 04:52:41;;;;;;;46.48;26.50;;;;;;;5.25;76.39;98468.37;125439;1127;23028;-80
2021/01/23 04:55:10;;;;;;;49.55;27.98;;;;;;;5.28;76.99;98460.16;125498;1130;22450;-80
2021/01/23 04:57:42;;;;;;;45.40;27.55;;;;;;;5.27;76.43;98450.70;125522;1127;24559;-80
2021/01/23 05:00:12;;;;;;;44.93;28.35;;;;;;;5.24;76.41;98451.05;125527;1126;22486;-80
2021/01/23 05:02:41;;;;;;;33.13;25.52;;;;;;;5.25;76.35;98450.05;125512;1127;24619;-80
2021/01/23 05:05:10;;;;;;;32.88;23.98;;;;;;;5.25;77.08;98442.20;125469;1126;22815;-80
2021/01/23 05:07:40;;;;;;;34.13;26.07;;;;;;;5.26;76.48;98430.72;125445;1127;22423;-79
2021/01/23 05:10:26;;;;;;;32.78;24.70;;;;;;;5.25;76.73;98423.87;125458;1127;22405;-79
2021/01/23 05:13:00;;;;;;;36.17;26.50;;;;;;;5.22;76.11;98432.89;125548;1130;22449;-79
2021/01/23 05:15:31;;;;;;;42.40;29.27;;;;;;;5.18;76.25;98437.67;125545;1127;22440;-79
2021/01/23 05:18:07;;;;;;;35.73;28.25;;;;;;;5.14;76.52;98419.91;125506;1127;22891;-79
2021/01/23 05:20:47;;;;;;;36.60;28.60;;;;;;;5.13;76.68;98426.95;125443;1127;22599;-79
2021/01/23 05:23:31;;;;;;;52.35;33.58;;;;;;;5.11;77.08;98428.92;125492;1126;22447;-79
2021/01/23 05:26:01;;;;;;;44.60;30.92;;;;;;;5.12;76.95;98425.30;125420;1128;22435;-80
2021/01/23 05:28:35;;;;;;;42.00;29.98;;;;;;;5.08;76.77;98426.66;125555;1130;22427;-79
2021/01/23 05:31:15;;;;;;;46.85;32.58;;;;;;;5.08;77.14;98421.42;125540;1127;22531;-80
2021/01/23 05:33:43;;;;;;;36.75;27.58;;;;;;;5.09;76.70;98432.70;125546;1130;22437;-80
2021/01/23 05:36:14;;;;;;;65.08;44.58;;;;;;;5.11;76.85;98423.69;125501;1127;22435;-79
2021/01/23 05:38:44;;;;;;;44.38;33.67;;;;;;;5.14;76.64;98420.72;125480;1126;24276;-79
2021/01/23 05:41:15;;;;;;;196.87;133.67;;;;;;;5.14;76.52;98414.67;125422;1127;22428;-81
2021/01/23 05:43:52;;;;;;;856.38;461.47;;;;;;;5.10;76.90;98414.22;125495;1127;25225;-80
2021/01/23 05:46:31;;;;;;;601.17;281.60;;;;;;;5.07;76.35;98409.34;125465;1128;22450;-80
2021/01/23 05:48:59;;;;;;;908.23;402.77;;;;;;;5.09;76.56;98401.30;125648;1126;22435;-80
2021/01/23 05:51:27;;;;;;;367.85;159.60;;;;;;;5.10;77.11;98398.52;125483;1127;24358;-79
2021/01/23 05:53:55;;;;;;;423.10;198.00;;;;;;;5.10;76.58;98395.09;125487;1127;25815;-80
2021/01/23 05:56:25;;;;;;;176.53;92.47;;;;;;;5.10;77.15;98392.47;125495;1126;22440;-79
2021/01/23 05:58:53;;;;;;;200.15;111.45;;;;;;;5.09;76.55;98396.88;125476;1127;22441;-80
2021/01/23 06:01:22;;;;;;;221.37;144.07;;;;;;;5.10;77.05;98392.47;125447;1129;22442;-80
2021/01/23 06:03:54;;;;;;;58.35;42.25;;;;;;;5.10;77.06;98385.43;125505;1128;22458;-80
2021/01/23 06:06:22;;;;;;;57.75;38.85;;;;;;;5.08;76.45;98382.17;125573;1127;22434;-81
2021/01/23 06:08:52;;;;;;;46.28;32.88;;;;;;;5.06;76.85;98385.95;125473;1127;24600;-78
2021/01/23 06:11:22;;;;;;;47.45;34.03;;;;;;;5.02;76.90;98382.88;125359;1127;24527;-79
2021/01/23 06:13:52;;;;;;;48.02;35.83;;;;;;;5.00;76.33;98384.05;125322;1127;22428;-80
2021/01/23 06:16:32;;;;;;;47.40;35.35;;;;;;;4.98;76.66;98379.02;125525;1127;22532;-79
2021/01/23 06:19:13;;;;;;;62.95;48.30;;;;;;;4.99;76.36;98364.92;125559;1126;24564;-79
2021/01/23 06:21:44;;;;;;;54.33;34.60;;;;;;;5.00;76.79;98363.11;125495;1127;22438;-80
2021/01/23 06:24:41;;;;;;;37.90;30.50;;;;;;;5.00;76.67;98363.11;125541;1126;22492;-81
2021/01/23 06:27:09;;;;;;;41.80;31.02;;;;;;;4.95;76.42;98353.20;125502;1126;24261;-80
2021/01/23 06:29:45;;;;;;;47.08;33.58;;;;;;;4.93;76.56;98344.71;125496;1129;22450;-80
2021/01/23 06:32:13;;;;;;;47.20;35.38;;;;;;;4.90;76.69;98343.29;125478;1128;22491;-80
2021/01/23 06:34:53;;;;;;;75.35;46.25;;;;;;;4.91;77.09;98341.48;125505;1126;24549;-80
2021/01/23 06:37:34;;;;;;;69.40;42.33;;;;;;;4.89;76.40;98340.84;125491;1127;22535;-80
2021/01/23 06:40:25;;;;;;;55.48;39.08;;;;;;;4.84;77.16;98337.97;125523;1127;22479;-79
2021/01/23 06:42:54;;;;;;;47.75;38.67;;;;;;;4.81;77.34;98341.75;125518;1126;24345;-79
2021/01/23 06:45:33;;;;;;;51.63;39.73;;;;;;;4.81;76.59;98336.52;125457;1127;25055;-78
2021/01/23 06:48:02;;;;;;;51.75;40.28;;;;;;;4.85;76.68;98334.34;125648;1126;25046;-79
2021/01/23 06:50:40;;;;;;;50.28;39.70;;;;;;;4.88;77.11;98331.37;125501;1127;22450;-79
2021/01/23 06:53:22;;;;;;;50.15;39.85;;;;;;;4.89;76.61;98332.98;125577;1127;22607;-77
2021/01/23 06:55:52;;;;;;;52.08;39.23;;;;;;;4.88;76.74;98323.52;125480;1127;23469;-78
2021/01/23 06:58:21;;;;;;;53.15;39.92;;;;;;;4.88;76.73;98321.72;125576;1127;24323;-77
2021/01/23 07:00:55;;;;;;;58.73;40.52;;;;;;;4.91;76.58;98316.13;125532;1127;22787;-76
2021/01/23 07:03:30;;;;;;;59.88;42.33;;;;;;;4.95;77.01;98316.57;125515;1127;22472;-77
2021/01/23 07:06:02;;;;;;;74.20;46.70;;;;;;;4.98;76.63;98310.17;125492;1127;24328;-77
2021/01/23 07:08:37;;;;;;;54.93;41.90;;;;;;;4.99;76.89;98307.36;125499;1127;22435;-78
2021/01/23 07:11:11;;;;;;;62.53;42.30;;;;;;;4.98;76.65;98300.52;125448;1125;24300;-81
2021/01/23 07:14:07;;;;;;;56.18;41.55;;;;;;;5.01;76.90;98297.53;125412;1126;22441;-76
2021/01/23 07:16:39;;;;;;;52.38;34.48;;;;;;;5.06;76.90;98291.73;125386;1127;22441;-78
2021/01/23 07:19:08;;;;;;;57.05;35.33;;;;;;;5.11;77.02;98292.83;125417;1126;22486;-79
2021/01/23 07:21:41;;;;;;;51.92;36.75;;;;;;;5.18;77.23;98292.91;125363;1131;22447;-79
2021/01/23 07:24:10;;;;;;;57.98;39.92;;;;;;;5.22;77.09;98285.49;125405;1129;23377;-79
2021/01/23 07:26:40;;;;;;;51.37;34.98;;;;;;;5.27;76.95;98283.15;125402;1131;22501;-79
2021/01/23 07:29:09;;;;;;;45.70;30.82;;;;;;;5.28;77.33;98277.71;125397;1127;24240;-80
2021/01/23 07:31:37;;;;;;;63.02;38.10;;;;;;;5.36;76.91;98274.16;125416;1127;25018;-79
2021/01/23 07:34:12;;;;;;;89.03;50.63;;;;;;;5.43;76.95;98269.80;125418;1127;22447;-79
2021/01/23 07:36:45;;;;;;;115.62;70.52;;;;;;;5.52;77.19;98266.08;125380;1126;22518;-78
2021/01/23 07:39:17;;;;;;;48.85;34.55;;;;;;;5.58;76.55;98265.34;125408;1130;22872;-78
2021/01/23 07:41:50;;;;;;;46.85;32.75;;;;;;;5.63;76.98;98257.74;125448;1127;22457;-79
2021/01/23 07:44:20;;;;;;;46.70;30.90;;;;;;;5.66;77.13;98254.75;125433;1129;22454;-78
2021/01/23 07:46:48;;;;;;;39.00;28.07;;;;;;;5.75;76.62;98259.84;125441;1127;22460;-79
2021/01/23 07:49:26;;;;;;;43.48;28.57;;;;;;;5.85;76.93;98257.72;125451;1127;22464;-77
2021/01/23 07:52:09;;;;;;;35.63;25.32;;;;;;;5.94;76.84;98254.01;125447;1130;22457;-77
2021/01/23 07:54:50;;;;;;;45.40;29.18;;;;;;;5.99;77.09;98238.50;125392;1127;23790;-78
2021/01/23 07:57:19;;;;;;;36.33;27.07;;;;;;;6.03;76.83;98249.42;125397;1127;25142;-77
2021/01/23 07:59:48;;;;;;;62.88;39.90;;;;;;;6.04;76.58;98243.20;125438;1126;22555;-77
2021/01/23 08:02:18;;;;;;;130.93;83.20;;;;;;;6.06;76.92;98241.17;125219;1129;22455;-78
2021/01/23 08:04:53;;;;;;;65.47;43.60;;;;;;;6.11;76.83;98239.62;125445;1127;22463;-79
2021/01/23 08:07:30;;;;;;;50.63;37.35;;;;;;;6.17;77.26;98243.30;125402;1127;22654;-78
2021/01/23 08:10:16;;;;;;;66.77;43.80;;;;;;;6.22;76.90;98235.65;125438;1130;22473;-78
2021/01/23 08:12:51;;;;;;;55.30;35.78;;;;;;;6.28;76.78;98244.57;125403;1127;22451;-78
2021/01/23 08:15:34;;;;;;;48.15;31.40;;;;;;;6.32;76.62;98238.74;125447;1127;22430;-80
2021/01/23 08:18:15;;;;;;;41.47;25.87;;;;;;;6.40;77.28;98235.18;125418;1130;22443;-79
2021/01/23 08:20:44;;;;;;;33.58;24.98;;;;;;;6.47;77.09;98233.41;125443;1127;22453;-79
2021/01/23 08:23:16;;;;;;;40.52;26.02;;;;;;;6.55;77.20;98221.94;125429;1126;25051;-79
2021/01/23 08:25:49;;;;;;;41.13;27.80;;;;;;;6.62;76.74;98224.59;125448;1126;22544;-79
2021/01/23 08:28:45;;;;;;;34.23;23.67;;;;;;;6.66;76.54;98218.75;125413;1130;22443;-79
2021/01/23 08:31:22;;;;;;;44.60;32.33;;;;;;;6.68;77.08;98216.75;125366;1126;24592;-79
2021/01/23 08:33:56;;;;;;;41.27;28.10;;;;;;;6.75;76.80;98222.03;125379;1129;22442;-79
2021/01/23 08:36:28;;;;;;;45.83;31.25;;;;;;;6.84;76.87;98212.99;125470;1127;22466;-78
2021/01/23 08:39:06;;;;;;;72.70;39.00;;;;;;;6.92;76.48;98212.00;125486;1126;22451;-78
2021/01/23 08:41:36;;;;;;;45.90;25.25;;;;;;;6.97;76.68;98217.48;125441;1127;22460;-79
2021/01/23 08:44:05;;;;;;;46.92;27.90;;;;;;;7.03;76.05;98212.26;125527;1126;23226;-79
2021/01/23 08:46:35;;;;;;;28.83;19.50;;;;;;;7.10;76.05;98201.78;125558;1129;22521;-79
2021/01/23 08:49:04;;;;;;;30.60;18.82;;;;;;;7.18;76.07;98198.95;125487;1127;22662;-79
2021/01/23 08:51:34;;;;;;;48.43;27.63;;;;;;;7.23;75.83;98195.73;125359;1127;22432;-80
2021/01/23 08:54:03;;;;;;;35.92;20.10;;;;;;;7.25;75.74;98185.84;125361;1129;22438;-78
2021/01/23 08:56:31;;;;;;;24.80;18.02;;;;;;;7.30;75.75;98189.50;125529;1127;22456;-77
2021/01/23 08:58:59;;;;;;;32.75;21.90;;;;;;;7.36;75.71;98179.19;125536;1127;24585;-78
2021/01/23 09:01:27;;;;;;;29.05;18.90;;;;;;;7.43;75.23;98183.46;125412;1126;22914;-78
2021/01/23 09:03:56;;;;;;;30.12;19.48;;;;;;;7.48;75.02;98175.77;125364;1127;22454;-78
2021/01/23 09:06:24;;;;;;;24.90;15.68;;;;;;;7.53;75.10;98180.41;125431;1130;22545;-83
2021/01/23 09:08:52;;;;;;;26.87;16.97;;;;;;;7.58;74.98;98182.45;125390;1129;23327;-81
2021/01/23 09:11:20;;;;;;;20.70;15.93;;;;;;;7.64;74.74;98181.66;125391;1127;22441;-79
2021/01/23 09:13:48;;;;;;;22.27;15.38;;;;;;;7.69;74.69;98176.58;125374;1129;22497;-79
2021/01/23 09:16:16;;;;;;;21.00;13.98;;;;;;;7.73;74.49;98175.16;125417;1127;22451;-79
2021/01/23 09:18:46;;;;;;;25.30;14.47;;;;;;;7.80;74.31;98168.11;125387;1126;24750;-78
2021/01/23 09:21:14;;;;;;;23.32;15.40;;;;;;;7.83;74.10;98172.13;125446;1127;22461;-79
2021/01/23 09:23:42;;;;;;;15.55;11.55;;;;;;;7.86;74.06;98162.02;125436;1127;22447;-79
2021/01/23 09:26:10;;;;;;;21.40;13.43;;;;;;;7.91;74.16;98162.22;125401;1130;22448;-78
2021/01/23 09:28:38;;;;;;;17.87;12.58;;;;;;;7.97;73.96;98174.56;125427;1126;22451;-79
2021/01/23 09:31:07;;;;;;;19.00;12.23;;;;;;;8.00;73.60;98155.75;125415;1127;22492;-78
2021/01/23 09:33:36;;;;;;;18.15;11.83;;;;;;;8.04;73.51;98153.52;125440;1127;22460;-78
2021/01/23 09:36:05;;;;;;;18.57;13.28;;;;;;;8.05;73.35;98163.01;125407;1127;22443;-79
2021/01/23 09:38:33;;;;;;;23.18;13.53;;;;;;;8.08;73.35;98149.45;125439;1127;23551;-79
2021/01/23 09:41:01;;;;;;;19.62;14.07;;;;;;;8.09;73.21;98145.00;125396;1126;23377;-79
2021/01/23 09:43:30;;;;;;;16.52;12.07;;;;;;;8.09;73.15;98142.37;125398;1127;22442;-79
2021/01/23 09:45:58;;;;;;;25.50;19.52;;;;;;;8.10;73.00;98139.55;125398;1126;22440;-78
2021/01/23 09:48:26;;;;;;;25.08;17.70;;;;;;;8.13;72.89;98143.56;125429;1127;22451;-78
2021/01/23 09:50:54;;;;;;;21.70;12.58;;;;;;;8.17;73.21;98132.45;125411;1126;24256;-79
2021/01/23 09:53:22;;;;;;;15.08;12.40;;;;;;;8.20;72.89;98137.30;125430;1130;22544;-78
2021/01/23 09:55:50;;;;;;;16.55;11.40;;;;;;;8.23;72.94;98142.15;125414;1126;22466;-79
2021/01/23 09:58:19;;;;;;;16.25;12.63;;;;;;;8.22;72.85;98139.70;125344;1127;22506;-78
2021/01/23 10:00:47;;;;;;;18.60;13.32;;;;;;;8.22;72.40;98134.45;125390;1127;22523;-78
2021/01/23 10:03:16;;;;;;;18.50;12.98;;;;;;;8.22;72.83;98137.08;125454;1126;22459;-79
2021/01/23 10:05:44;;;;;;;18.77;13.10;;;;;;;8.24;72.81;98130.60;125414;1127;22501;-79
2021/01/23 10:08:13;;;;;;;14.95;11.60;;;;;;;8.28;72.50;98133.63;125461;1130;22445;-79
2021/01/23 10:10:41;;;;;;;16.80;12.53;;;;;;;8.28;72.57;98123.11;125352;1127;22497;-79
2021/01/23 10:13:09;;;;;;;17.95;12.63;;;;;;;8.28;72.18;98120.47;125365;1126;22940;-80
2021/01/23 10:15:37;;;;;;;19.73;15.25;;;;;;;8.30;72.14;98114.98;125377;1130;23002;-78
2021/01/23 10:18:06;;;;;;;18.32;13.88;;;;;;;8.34;72.19;98122.28;125412;1127;22459;-78
2021/01/23 10:20:36;;;;;;;24.27;15.80;;;;;;;8.36;72.29;98122.86;125397;1127;22465;-78
2021/01/23 10:23:04;;;;;;;20.75;14.07;;;;;;;8.35;71.76;98113.36;125373;1130;22560;-78
2021/01/23 10:25:32;;;;;;;31.25;19.25;;;;;;;8.35;71.67;98112.56;125439;1127;22783;-78
2021/01/23 10:28:00;;;;;;;28.02;19.95;;;;;;;8.33;71.63;98118.04;125415;1127;22483;-78
2021/01/23 10:30:29;;;;;;;19.92;13.70;;;;;;;8.32;71.72;98113.77;125333;1126;22451;-78
2021/01/23 10:32:57;;;;;;;24.53;16.23;;;;;;;8.34;71.54;98103.86;125487;1127;22441;-79
2021/01/23 10:35:25;;;;;;;19.30;14.80;;;;;;;8.35;71.55;98102.03;125383;1127;22855;-78
2021/01/23 10:37:53;;;;;;;23.80;17.07;;;;;;;8.35;71.61;98102.03;125409;1127;22448;-78
2021/01/23 10:40:21;;;;;;;21.40;16.15;;;;;;;8.36;71.53;98098.38;125451;1127;22498;-78
2021/01/23 10:42:49;;;;;;;20.80;15.58;;;;;;;8.42;71.36;98094.95;125386;1127;22454;-78
2021/01/23 10:45:17;;;;;;;24.80;17.55;;;;;;;8.44;71.23;98095.56;125403;1127;23381;-80
2021/01/23 10:47:46;;;;;;;28.98;22.32;;;;;;;8.49;71.40;98091.27;125370;1127;24355;-78
2021/01/23 10:50:14;;;;;;;23.95;17.80;;;;;;;8.53;71.31;98088.22;125395;1127;22441;-78
2021/01/23 10:52:42;;;;;;;23.85;15.90;;;;;;;8.56;71.10;98093.87;125430;1127;22456;-78
2021/01/23 10:55:10;;;;;;;24.52;16.42;;;;;;;8.63;71.07;98085.94;125399;1129;22441;-78
2021/01/23 10:57:38;;;;;;;20.50;15.18;;;;;;;8.69;70.87;98093.00;125351;1127;22445;-78
2021/01/23 11:00:09;;;;;;;21.02;15.85;;;;;;;8.75;70.85;98099.25;125541;1127;22516;-78
2021/01/23 11:02:41;;;;;;;26.97;15.85;;;;;;;8.81;70.63;98093.95;125441;1127;24368;-78
2021/01/23 11:05:10;;;;;;;23.47;16.50;;;;;;;8.87;70.75;98089.67;125425;1127;22490;-78
2021/01/23 11:07:56;;;;;;;25.45;15.05;;;;;;;8.93;70.51;98088.83;125376;1127;25398;-78
2021/01/23 11:10:24;;;;;;;21.40;14.07;;;;;;;9.02;70.30;98081.47;125427;1127;22548;-78
2021/01/23 11:12:52;;;;;;;23.50;18.27;;;;;;;9.09;69.90;98074.32;125369;1127;23095;-78
2021/01/23 11:15:20;;;;;;;19.20;15.58;;;;;;;9.12;69.78;98079.16;125412;1127;22451;-78
2021/01/23 11:17:48;;;;;;;32.25;24.98;;;;;;;9.17;70.19;98072.24;125501;1127;22470;-83
2021/01/23 11:20:57;;;;;;;20.90;14.25;;;;;;;9.22;69.67;98070.78;125700;1124;24354;-77
2021/01/23 11:23:25;;;;;;;20.62;14.53;;;;;;;9.28;69.46;98065.47;125524;1124;22428;-77
2021/01/23 11:25:53;;;;;;;18.77;13.33;;;;;;;9.31;69.14;98072.94;125453;1125;23329;-77
2021/01/23 11:28:22;;;;;;;18.92;13.43;;;;;;;9.35;68.89;98068.05;125417;1126;22421;-77
2021/01/23 11:30:53;;;;;;;19.50;12.95;;;;;;;9.39;69.05;98064.75;125422;1127;23211;-77
2021/01/23 11:33:22;;;;;;;17.87;12.65;;;;;;;9.50;68.86;98065.09;125413;1127;22476;-78